Terminal Aerodrome Forecast
Issued by NWS

Home | Current Version | Previous Version | Graphics & Text | Print | Product List | Glossary On
Versions: 1 2 3 4 5 6 7 8 9 10 11 12 13 14 15 16 17 18
732
FTUS43 KMPX 151134
TAFAXN
TAF
KAXN 151134Z 1512/1612 34017G26KT 6SM BLSN SCT015 OVC040=

USA.gov is the U.S. government's official web portal to all federal, state and local government web resources and services.